Terminal Aerodrome Forecast
Issued by NWS

Home | Current Version | Previous Version | Text Only | Print | Product List | Glossary On
Versions: 1 2 3 4 5 6 7 8 9 10 11 12 13 14 15 16
000
FTUS45 KGJT 191733
TAFEGE
TAF
KEGE 191733Z 1918/2018 23005KT P6SM VCSH BKN060
      TEMPO 1919/1922 VRB15G25KT -SHRA BKN040
     FM200200 09005KT P6SM VCSH SCT050 BKN080
     FM200800 12003KT P6SM SCT080 BKN150
     FM201400 00000KT P6SM FEW100 SCT150=

USA.gov is the U.S. government's official web portal to all federal, state and local government web resources and services.